Time;durP1;ratioP1;P1;durP2;ratioP2;P2;SDS_P1;SDS_P2;PMS_P1;PMS_P2;Temp;Humidity;BMP_temperature;BMP_pressure;BME280_temperature;BME280_humidity;BME280_pressure;Samples;Min_cycle;Max_cycle;Signal;HPM_P1;HPM_P2
2022/04/08 00:00:01;;;;;;;5.62;1.20;;;8.60;73.40;;;;;;2374756;56;21537;-75
2022/04/08 00:02:28;;;;;;;5.35;1.55;;;8.50;73.30;;;;;;2375385;56;21042;-76
2022/04/08 00:04:57;;;;;;;7.07;1.10;;;8.50;73.00;;;;;;2374798;56;21055;-75
2022/04/08 00:07:25;;;;;;;2.67;1.10;;;8.50;73.60;;;;;;2374777;56;21122;-75
2022/04/08 00:09:52;;;;;;;2.22;1.00;;;8.50;72.70;;;;;;2374724;56;21106;-75
2022/04/08 00:12:19;;;;;;;4.65;1.30;;;8.50;72.90;;;;;;2373610;56;21114;-75
2022/04/08 00:14:47;;;;;;;7.22;1.37;;;8.50;73.00;;;;;;2374622;56;21533;-75
2022/04/08 00:17:14;;;;;;;6.22;2.30;;;8.50;72.50;;;;;;2627980;52;21043;-75
2022/04/08 00:19:42;;;;;;;8.57;1.33;;;8.40;73.10;;;;;;2374789;56;21194;-75
2022/04/08 00:22:09;;;;;;;3.60;1.30;;;8.40;72.60;;;;;;2375028;56;21114;-75
2022/04/08 00:24:36;;;;;;;3.30;1.10;;;8.40;72.60;;;;;;2375019;56;21062;-75
2022/04/08 00:27:04;;;;;;;6.55;1.35;;;8.40;72.70;;;;;;2373863;56;21035;-74
2022/04/08 00:29:31;;;;;;;6.22;1.10;;;8.40;72.60;;;;;;2373205;56;21039;-74
2022/04/08 00:31:58;;;;;;;9.15;1.58;;;8.40;72.40;;;;;;2374975;56;21202;-75
2022/04/08 00:34:26;;;;;;;3.92;1.70;;;8.40;72.10;;;;;;2375222;56;21111;-77
2022/04/08 00:36:55;;;;;;;3.95;1.83;;;8.40;71.80;;;;;;2374803;56;21087;-75
2022/04/08 00:39:22;;;;;;;7.18;2.30;;;8.30;71.90;;;;;;2375213;56;21023;-75
2022/04/08 00:41:50;;;;;;;9.90;1.40;;;8.30;71.80;;;;;;2374861;56;21031;-75
2022/04/08 00:44:18;;;;;;;5.32;1.67;;;8.30;72.20;;;;;;2374571;56;21047;-75
2022/04/08 00:46:45;;;;;;;5.43;1.37;;;8.20;71.90;;;;;;2372586;56;21019;-75
2022/04/08 00:49:12;;;;;;;4.18;1.27;;;8.30;71.70;;;;;;2375021;56;21130;-75
2022/04/08 00:51:40;;;;;;;6.60;1.60;;;8.20;71.60;;;;;;2374862;56;21348;-75
2022/04/08 00:54:08;;;;;;;5.50;1.70;;;8.20;71.80;;;;;;2374509;56;21035;-75
2022/04/08 00:56:36;;;;;;;4.97;1.60;;;8.20;71.80;;;;;;2371335;56;21027;-75
2022/04/08 00:59:04;;;;;;;6.87;1.55;;;8.20;71.70;;;;;;2626867;52;21071;-75
2022/04/08 01:01:32;;;;;;;3.72;1.50;;;8.20;71.80;;;;;;2373579;56;21030;-75
2022/04/08 01:03:59;;;;;;;6.28;1.15;;;8.20;71.80;;;;;;2373210;56;21027;-75
2022/04/08 01:06:27;;;;;;;11.20;2.17;;;8.20;72.00;;;;;;2373104;56;21046;-75
2022/04/08 01:08:54;;;;;;;3.17;1.12;;;8.30;72.10;;;;;;2374199;56;21050;-74
2022/04/08 01:11:22;;;;;;;5.22;1.40;;;8.30;72.10;;;;;;2373557;56;21031;-76
2022/04/08 01:13:51;;;;;;;6.40;1.55;;;8.30;71.60;;;;;;2373534;56;21569;-75
2022/04/08 01:16:19;;;;;;;4.87;1.55;;;8.30;71.60;;;;;;2373514;56;21662;-75
2022/04/08 01:18:46;;;;;;;8.80;1.55;;;8.30;71.30;;;;;;2373946;56;21516;-75
2022/04/08 01:21:14;;;;;;;10.10;1.58;;;8.30;71.40;;;;;;2373571;56;21126;-74
2022/04/08 01:23:47;;;;;;;8.70;2.33;;;8.20;71.40;;;;;;2373723;56;21186;-74
2022/04/08 01:26:14;;;;;;;5.97;1.45;;;8.20;71.30;;;;;;2373136;56;21110;-75
2022/04/08 01:28:44;;;;;;;6.25;1.20;;;8.20;71.70;;;;;;2373605;56;21166;-74
2022/04/08 01:31:11;;;;;;;8.43;1.92;;;8.20;71.60;;;;;;2373348;56;21043;-75
2022/04/08 01:33:38;;;;;;;11.00;1.75;;;8.20;71.30;;;;;;2373902;56;21102;-75
2022/04/08 01:36:06;;;;;;;4.80;1.58;;;8.20;71.00;;;;;;2373437;56;21549;-75
2022/04/08 01:38:33;;;;;;;7.57;1.65;;;8.20;70.80;;;;;;2373063;56;21111;-75
2022/04/08 01:41:00;;;;;;;5.10;1.60;;;8.20;70.90;;;;;;2373581;56;21114;-75
2022/04/08 01:43:28;;;;;;;7.68;1.50;;;8.10;71.00;;;;;;2374104;56;21667;-75
2022/04/08 01:45:55;;;;;;;3.33;1.37;;;8.10;71.30;;;;;;2626027;52;21058;-75
2022/04/08 01:48:22;;;;;;;7.15;1.80;;;8.10;71.70;;;;;;2374033;56;21015;-75
2022/04/08 01:50:49;;;;;;;3.25;1.45;;;8.10;71.60;;;;;;2373725;56;21766;-75
2022/04/08 01:53:17;;;;;;;9.25;3.28;;;8.10;72.10;;;;;;2373977;56;21035;-76
2022/04/08 01:55:45;;;;;;;6.47;1.70;;;8.10;71.80;;;;;;2372794;56;21043;-76
2022/04/08 01:58:12;;;;;;;10.35;2.25;;;8.20;72.00;;;;;;2373653;56;21051;-75
2022/04/08 02:00:39;;;;;;;4.45;1.62;;;8.20;71.80;;;;;;2398571;54;21189;-73
2022/04/08 02:03:07;;;;;;;3.42;1.33;;;8.20;71.80;;;;;;2302826;58;21070;-72
2022/04/08 02:05:34;;;;;;;7.30;1.92;;;8.20;71.90;;;;;;2301623;58;21164;-74
2022/04/08 02:08:02;;;;;;;6.85;1.83;;;8.20;72.00;;;;;;2301550;58;21174;-74
2022/04/08 02:10:29;;;;;;;8.98;1.77;;;8.20;72.40;;;;;;2301288;58;21070;-74
2022/04/08 02:12:56;;;;;;;11.27;2.20;;;8.20;72.40;;;;;;2391011;54;21725;-75
2022/04/08 02:15:31;;;;;;;8.27;2.05;;;8.10;72.50;;;;;;2300250;58;21102;-74
2022/04/08 02:17:58;;;;;;;5.07;1.75;;;8.10;72.70;;;;;;2301027;58;21467;-74
2022/04/08 02:20:26;;;;;;;4.97;1.40;;;8.00;72.30;;;;;;2300180;58;21067;-74
2022/04/08 02:22:53;;;;;;;4.28;1.45;;;8.00;72.40;;;;;;2301315;57;21573;-74
2022/04/08 02:25:22;;;;;;;5.87;1.55;;;8.00;72.40;;;;;;2300795;58;21046;-75
2022/04/08 02:27:49;;;;;;;9.43;2.30;;;7.90;72.70;;;;;;2301055;58;21054;-75
2022/04/08 02:30:17;;;;;;;6.65;2.05;;;7.90;72.90;;;;;;2301029;58;21071;-73
2022/04/08 02:32:44;;;;;;;6.68;1.83;;;7.90;73.10;;;;;;2472674;54;21138;-74
2022/04/08 02:35:11;;;;;;;10.00;2.62;;;8.00;73.20;;;;;;2301441;58;21054;-74
2022/04/08 02:37:39;;;;;;;7.50;1.73;;;8.00;74.20;;;;;;2300559;58;21070;-74
2022/04/08 02:40:09;;;;;;;7.20;1.83;;;7.90;73.10;;;;;;2301226;58;21074;-73
2022/04/08 02:45:12;;;;;;;11.12;2.10;;;8.00;73.20;;;;;;2304067;57;27926;-74
2022/04/08 02:47:43;;;;;;;11.45;2.17;;;7.60;74.50;;;;;;2318879;58;21056;-73
2022/04/08 02:50:11;;;;;;;12.20;2.42;;;7.80;73.80;;;;;;2318970;58;21048;-74
2022/04/08 02:52:38;;;;;;;10.30;2.00;;;7.90;72.90;;;;;;2318894;58;21060;-74
2022/04/08 02:55:07;;;;;;;10.18;1.85;;;7.90;72.60;;;;;;2318594;58;21048;-74
2022/04/08 02:57:44;;;;;;;11.12;2.62;;;7.90;72.40;;;;;;2318021;58;21554;-73
2022/04/08 03:00:14;;;;;;;8.35;1.73;;;7.90;72.20;;;;;;2318840;58;21701;-73
2022/04/08 03:02:42;;;;;;;6.53;1.67;;;7.90;72.10;;;;;;2318569;58;21061;-73
2022/04/08 03:05:10;;;;;;;7.20;1.85;;;7.90;72.20;;;;;;2318199;58;21045;-74
2022/04/08 03:07:38;;;;;;;9.20;2.10;;;8.00;71.90;;;;;;2318568;58;21031;-74
2022/04/08 03:10:08;;;;;;;5.40;2.08;;;7.90;71.80;;;;;;2318462;58;21029;-74
2022/04/08 03:12:36;;;;;;;9.40;2.10;;;8.00;71.90;;;;;;2318959;58;21582;-74
2022/04/08 03:15:05;;;;;;;13.68;2.75;;;8.00;71.80;;;;;;2319127;58;21048;-73
2022/04/08 03:17:32;;;;;;;6.25;2.20;;;8.00;71.60;;;;;;2318347;58;21159;-73
2022/04/08 03:20:00;;;;;;;11.32;1.98;;;8.00;71.60;;;;;;2318775;58;21100;-74
2022/04/08 03:22:27;;;;;;;11.23;2.25;;;8.00;71.40;;;;;;2318730;58;21050;-74
2022/04/08 03:24:55;;;;;;;9.57;2.28;;;8.00;71.20;;;;;;2319424;58;21547;-74
2022/04/08 03:27:22;;;;;;;11.38;2.00;;;8.00;71.00;;;;;;2318154;58;21050;-74
2022/04/08 03:29:49;;;;;;;13.18;2.40;;;8.00;71.00;;;;;;2317992;57;21064;-74
2022/04/08 03:32:16;;;;;;;15.95;2.37;;;7.90;71.00;;;;;;2318536;58;21124;-74
2022/04/08 03:34:44;;;;;;;16.17;2.40;;;7.90;71.00;;;;;;2319127;58;21048;-74
2022/04/08 03:37:11;;;;;;;6.03;2.22;;;7.90;71.10;;;;;;2318074;58;21100;-74
2022/04/08 03:39:38;;;;;;;8.68;2.40;;;7.90;71.30;;;;;;2318795;58;21190;-74
2022/04/08 03:42:07;;;;;;;14.80;3.00;;;7.90;71.10;;;;;;2319080;58;21554;-74
2022/04/08 03:44:34;;;;;;;7.15;2.08;;;7.90;71.00;;;;;;2318478;58;22180;-73
2022/04/08 03:47:01;;;;;;;16.75;2.50;;;7.90;70.30;;;;;;2317137;58;21044;-75
2022/04/08 03:49:32;;;;;;;21.02;3.00;;;7.90;70.40;;;;;;2318107;58;21049;-74
2022/04/08 03:52:00;;;;;;;11.00;2.15;;;7.80;70.00;;;;;;2319033;58;21056;-74
2022/04/08 03:54:27;;;;;;;11.15;2.45;;;7.80;70.00;;;;;;2319063;58;21124;-74
2022/04/08 03:56:55;;;;;;;9.80;2.62;;;7.90;70.00;;;;;;2316337;58;21139;-74
2022/04/08 03:59:22;;;;;;;14.70;2.15;;;7.90;69.90;;;;;;2317634;58;21112;-74
2022/04/08 04:01:50;;;;;;;12.82;2.75;;;7.90;69.50;;;;;;2317684;58;21044;-74
2022/04/08 04:04:17;;;;;;;14.05;2.97;;;7.90;69.20;;;;;;2317769;58;21040;-73
2022/04/08 04:06:44;;;;;;;12.65;2.83;;;7.80;69.10;;;;;;2317518;58;21052;-74
2022/04/08 04:09:12;;;;;;;13.23;2.30;;;7.90;69.00;;;;;;2317993;58;21132;-75
2022/04/08 04:11:39;;;;;;;13.65;3.65;;;7.80;68.80;;;;;;2324779;54;21558;-73
2022/04/08 04:14:07;;;;;;;13.98;3.87;;;7.80;68.50;;;;;;2317659;58;21100;-74
2022/04/08 04:16:34;;;;;;;11.40;3.25;;;7.80;68.10;;;;;;2317815;58;21126;-74
2022/04/08 04:19:01;;;;;;;14.00;2.80;;;7.70;67.90;;;;;;2317582;58;21069;-73
2022/04/08 04:21:28;;;;;;;20.83;3.65;;;7.70;67.90;;;;;;2316438;58;21060;-74
2022/04/08 04:23:56;;;;;;;22.60;4.12;;;7.70;67.50;;;;;;2317785;58;21156;-74
2022/04/08 04:26:23;;;;;;;20.02;2.97;;;7.60;67.30;;;;;;2317916;58;21550;-74
2022/04/08 04:28:50;;;;;;;18.15;3.28;;;7.60;67.10;;;;;;2317621;58;21088;-73
2022/04/08 04:31:17;;;;;;;24.60;3.22;;;7.60;66.70;;;;;;2318059;58;21107;-73
2022/04/08 04:33:44;;;;;;;16.65;2.28;;;7.60;66.30;;;;;;2318123;58;21105;-74
2022/04/08 04:36:12;;;;;;;11.25;2.30;;;7.60;66.20;;;;;;2317363;58;21111;-75
2022/04/08 04:38:39;;;;;;;19.80;3.45;;;7.60;66.00;;;;;;2323545;54;21120;-73
2022/04/08 04:41:07;;;;;;;13.73;2.58;;;7.60;65.60;;;;;;2317477;58;21045;-75
2022/04/08 04:43:34;;;;;;;24.95;3.33;;;7.60;65.50;;;;;;2319104;58;21048;-74
2022/04/08 04:46:03;;;;;;;15.38;2.85;;;7.50;65.30;;;;;;2318476;58;21024;-73
2022/04/08 04:48:31;;;;;;;21.05;3.55;;;7.60;65.60;;;;;;2318787;58;21044;-73
2022/04/08 04:50:58;;;;;;;14.00;2.58;;;7.60;65.80;;;;;;2318132;58;21080;-74
2022/04/08 04:53:25;;;;;;;15.23;2.92;;;7.60;65.30;;;;;;2317739;58;21069;-74
2022/04/08 04:55:54;;;;;;;15.93;2.65;;;7.60;65.40;;;;;;2317513;58;21056;-74
2022/04/08 04:58:22;;;;;;;17.48;3.00;;;7.70;65.60;;;;;;2317896;58;21132;-74
2022/04/08 05:00:49;;;;;;;16.42;2.90;;;7.60;65.30;;;;;;2354410;54;21543;-74
2022/04/08 05:03:16;;;;;;;12.70;2.55;;;7.60;65.30;;;;;;2318143;58;21127;-74
2022/04/08 05:05:43;;;;;;;23.10;2.70;;;7.60;65.00;;;;;;2316991;58;21052;-74
2022/04/08 05:08:11;;;;;;;13.15;2.17;;;7.60;65.30;;;;;;2317618;58;21100;-74
2022/04/08 05:10:38;;;;;;;12.57;2.20;;;7.60;65.90;;;;;;2317349;58;21120;-74
2022/04/08 05:13:05;;;;;;;15.63;3.03;;;7.70;65.90;;;;;;2317810;58;21038;-74
2022/04/08 05:15:38;;;;;;;10.25;2.83;;;7.70;66.00;;;;;;2317065;58;21144;-78
2022/04/08 05:18:06;;;;;;;21.65;4.35;;;7.70;66.30;;;;;;2319433;58;21108;-78
2022/04/08 05:20:33;;;;;;;23.73;2.92;;;7.70;65.90;;;;;;2328097;54;21072;-74
2022/04/08 05:23:00;;;;;;;11.75;2.35;;;7.70;66.50;;;;;;2318154;58;21132;-74
2022/04/08 05:25:28;;;;;;;16.70;2.20;;;7.80;66.90;;;;;;2317726;58;21653;-74
2022/04/08 05:27:56;;;;;;;15.73;2.65;;;7.80;67.10;;;;;;2317693;58;21120;-74
2022/04/08 05:30:23;;;;;;;11.18;2.28;;;7.80;67.40;;;;;;2317448;58;21567;-74
2022/04/08 05:32:51;;;;;;;18.95;2.55;;;7.80;67.30;;;;;;2317974;58;21037;-74
2022/04/08 05:35:19;;;;;;;14.48;2.37;;;7.80;67.70;;;;;;2317535;58;21055;-74
2022/04/08 05:37:47;;;;;;;12.55;2.40;;;7.80;67.70;;;;;;2318061;58;21625;-74
2022/04/08 05:40:17;;;;;;;12.00;1.90;;;7.90;67.60;;;;;;2317671;58;21072;-74
2022/04/08 05:42:45;;;;;;;12.27;2.15;;;7.90;67.70;;;;;;2317110;58;21111;-75
2022/04/08 05:45:13;;;;;;;13.55;2.40;;;7.90;67.90;;;;;;2317136;58;21045;-75
2022/04/08 05:47:40;;;;;;;11.23;2.12;;;7.90;68.20;;;;;;2317905;58;21072;-74
2022/04/08 05:50:09;;;;;;;17.15;3.15;;;7.90;68.10;;;;;;2317740;58;21037;-75
2022/04/08 05:52:36;;;;;;;7.70;1.80;;;7.90;68.10;;;;;;2316791;58;21038;-75
2022/04/08 05:55:04;;;;;;;12.43;2.12;;;7.90;68.20;;;;;;2317816;58;21084;-75
2022/04/08 05:57:35;;;;;;;10.88;2.40;;;8.00;68.30;;;;;;2558100;54;21527;-74
2022/04/08 06:00:03;;;;;;;7.03;1.90;;;7.90;68.00;;;;;;2317347;58;21080;-74
2022/04/08 06:02:31;;;;;;;17.50;2.70;;;8.00;67.60;;;;;;2318091;58;21053;-74
2022/04/08 06:04:58;;;;;;;9.45;2.25;;;8.00;67.20;;;;;;2317785;58;21048;-73
2022/04/08 06:07:25;;;;;;;8.90;2.15;;;7.80;68.00;;;;;;2317657;58;21107;-74
2022/04/08 06:09:53;;;;;;;15.45;2.30;;;7.80;67.90;;;;;;2317304;58;21041;-74
2022/04/08 06:12:21;;;;;;;15.20;2.53;;;7.70;68.20;;;;;;2317611;58;21048;-74
2022/04/08 06:14:49;;;;;;;11.05;2.20;;;7.70;68.70;;;;;;2317700;58;21104;-74
2022/04/08 06:17:16;;;;;;;18.02;2.12;;;7.70;69.10;;;;;;2316791;58;21124;-74
2022/04/08 06:19:46;;;;;;;14.95;2.90;;;7.70;69.50;;;;;;2317323;58;21119;-76
2022/04/08 06:22:14;;;;;;;11.02;1.92;;;7.70;69.60;;;;;;2317829;58;21045;-74
2022/04/08 06:24:41;;;;;;;13.18;2.50;;;7.60;69.90;;;;;;2317590;58;21615;-74
2022/04/08 06:27:08;;;;;;;17.08;2.97;;;7.60;70.40;;;;;;2316777;58;21052;-74
2022/04/08 06:29:35;;;;;;;10.00;2.65;;;7.60;71.00;;;;;;2317728;58;21619;-74
2022/04/08 06:32:04;;;;;;;10.65;2.45;;;7.60;71.30;;;;;;2317417;58;21056;-74
2022/04/08 06:34:31;;;;;;;14.38;2.67;;;7.60;71.60;;;;;;2314730;58;21052;-74
2022/04/08 06:36:58;;;;;;;7.50;2.17;;;7.70;71.80;;;;;;2557358;53;21080;-74
2022/04/08 06:39:25;;;;;;;11.10;2.58;;;7.70;72.60;;;;;;2316897;58;21144;-74
2022/04/08 06:41:53;;;;;;;7.93;1.80;;;7.80;71.50;;;;;;2316709;58;21037;-74
2022/04/08 06:46:55;;;;;;;13.77;2.70;;;7.80;71.40;;;;;;2310554;57;27913;-74
2022/04/08 06:49:22;;;;;;;15.65;3.00;;;7.50;73.60;;;;;;2345998;57;21050;-74
2022/04/08 06:51:50;;;;;;;15.82;2.50;;;7.60;72.30;;;;;;2345084;57;21116;-75
2022/04/08 06:54:17;;;;;;;14.05;3.25;;;7.70;71.90;;;;;;2345861;57;21041;-74
2022/04/08 06:56:44;;;;;;;16.73;2.92;;;7.80;71.90;;;;;;2345902;57;21049;-80
2022/04/08 06:59:11;;;;;;;11.52;2.30;;;7.80;71.60;;;;;;2347159;57;21037;-74
2022/04/08 07:01:39;;;;;;;10.52;2.60;;;7.80;71.70;;;;;;2392872;53;21180;-74
2022/04/08 07:04:06;;;;;;;10.63;2.53;;;7.90;71.60;;;;;;2347773;57;21025;-74
2022/04/08 07:06:33;;;;;;;12.27;2.05;;;7.90;71.70;;;;;;2346722;57;21093;-74
2022/04/08 07:09:01;;;;;;;9.30;2.20;;;7.90;72.10;;;;;;2347234;57;21612;-74
2022/04/08 07:11:28;;;;;;;10.70;2.55;;;7.90;73.00;;;;;;2347032;57;21176;-74
2022/04/08 07:13:55;;;;;;;13.50;2.47;;;7.90;72.10;;;;;;2345526;57;21038;-74
2022/04/08 07:16:23;;;;;;;12.35;2.80;;;8.00;71.70;;;;;;2347436;57;22345;-74
2022/04/08 07:18:50;;;;;;;12.20;2.17;;;8.00;71.40;;;;;;2347897;57;21097;-74
2022/04/08 07:21:18;;;;;;;9.00;2.00;;;8.10;71.50;;;;;;2347480;57;21050;-74
2022/04/08 07:23:45;;;;;;;17.15;2.83;;;8.10;71.40;;;;;;2347712;57;21599;-74
2022/04/08 07:26:12;;;;;;;13.02;2.28;;;8.10;71.30;;;;;;2346688;57;21058;-74
2022/04/08 07:28:39;;;;;;;12.88;2.37;;;8.10;71.00;;;;;;2346913;57;21133;-74
2022/04/08 07:31:07;;;;;;;6.90;2.20;;;8.00;70.90;;;;;;2346017;57;21604;-74
2022/04/08 07:33:34;;;;;;;14.55;1.92;;;8.00;70.70;;;;;;2347752;57;21125;-73
2022/04/08 07:36:03;;;;;;;25.42;3.55;;;8.10;70.90;;;;;;2347012;57;21038;-74
2022/04/08 07:38:30;;;;;;;17.85;4.15;;;8.10;70.80;;;;;;2347550;57;21125;-74
2022/04/08 07:40:58;;;;;;;9.57;2.05;;;8.10;71.10;;;;;;2347608;57;21109;-74
2022/04/08 07:43:26;;;;;;;8.68;2.03;;;8.20;70.90;;;;;;2579751;53;21568;-74
2022/04/08 07:45:54;;;;;;;10.68;2.12;;;8.20;70.80;;;;;;2594649;52;21034;-74
2022/04/08 07:48:21;;;;;;;10.82;2.70;;;8.30;70.80;;;;;;2347537;57;21661;-74
2022/04/08 07:50:48;;;;;;;6.65;1.83;;;8.30;70.80;;;;;;2347993;57;21117;-74
2022/04/08 07:53:16;;;;;;;13.82;3.03;;;8.30;70.90;;;;;;2347409;57;21049;-74
2022/04/08 07:55:43;;;;;;;5.75;1.65;;;8.30;70.50;;;;;;2346937;57;21030;-74
2022/04/08 07:58:10;;;;;;;11.60;2.05;;;8.30;69.70;;;;;;2346687;57;21041;-74
2022/04/08 08:00:38;;;;;;;11.55;2.67;;;8.40;69.70;;;;;;2345404;52;70357;-84
2022/04/08 08:03:05;;;;;;;8.80;2.00;;;8.40;69.10;;;;;;2596460;53;21107;-79
2022/04/08 08:05:33;;;;;;;11.35;1.70;;;8.50;69.30;;;;;;2349187;57;21076;-83
2022/04/08 08:08:02;;;;;;;4.85;1.90;;;8.50;69.60;;;;;;2597722;52;21065;-83
2022/04/08 08:10:30;;;;;;;4.37;1.60;;;8.50;69.50;;;;;;2350536;56;22168;-82
2022/04/08 08:13:00;;;;;;;12.13;2.00;;;8.60;68.60;;;;;;2637359;52;21597;-83
2022/04/08 08:15:28;;;;;;;5.53;1.60;;;8.50;68.80;;;;;;2382646;56;21074;-81
2022/04/08 08:17:57;;;;;;;7.20;1.60;;;8.50;68.90;;;;;;2382190;56;21625;-82
2022/04/08 08:20:26;;;;;;;8.45;1.62;;;8.60;68.70;;;;;;2637332;52;21038;-83
2022/04/08 08:22:53;;;;;;;16.55;1.70;;;8.70;69.00;;;;;;2382440;56;21113;-87
2022/04/08 08:25:21;;;;;;;4.22;1.35;;;8.70;68.70;;;;;;2382146;56;21113;-81
2022/04/08 08:27:51;;;;;;;6.37;1.60;;;8.80;68.50;;;;;;2382530;56;21661;-83
2022/04/08 08:30:19;;;;;;;2.42;1.20;;;8.90;68.20;;;;;;2382775;56;21047;-82
2022/04/08 08:32:48;;;;;;;4.03;1.40;;;8.80;67.80;;;;;;2382930;56;21061;-83
2022/04/08 08:35:17;;;;;;;2.70;1.20;;;8.80;68.00;;;;;;2382409;56;21062;-81
2022/04/08 08:37:45;;;;;;;9.00;2.45;;;8.90;68.10;;;;;;2382741;56;21518;-85
2022/04/08 08:40:15;;;;;;;6.05;1.37;;;8.80;67.90;;;;;;2382676;56;21054;-84
2022/04/08 08:42:43;;;;;;;9.73;1.80;;;8.70;68.20;;;;;;2637694;52;21047;-80
2022/04/08 08:45:12;;;;;;;5.87;2.03;;;8.80;68.10;;;;;;2382433;56;21063;-82
2022/04/08 08:47:39;;;;;;;10.57;1.92;;;8.80;67.70;;;;;;2381453;56;21047;-82
2022/04/08 08:50:08;;;;;;;4.72;1.40;;;8.80;67.20;;;;;;2637183;52;21081;-82
2022/04/08 08:52:35;;;;;;;6.18;1.90;;;8.80;66.90;;;;;;2636853;52;21054;-84
2022/04/08 08:55:04;;;;;;;7.75;1.92;;;8.90;67.00;;;;;;2382623;56;21095;-82
2022/04/08 08:57:31;;;;;;;9.23;1.90;;;8.90;67.00;;;;;;2382362;56;21018;-83
2022/04/08 09:02:38;;;;;;;9.95;1.80;;;8.90;66.70;;;;;;2353400;57;22034;-73
2022/04/08 09:05:16;;;;;;;8.95;1.52;;;9.00;65.80;;;;;;2347990;56;21204;-75
2022/04/08 09:07:52;;;;;;;10.35;1.85;;;9.10;66.20;;;;;;2373546;56;21585;-74
2022/04/08 09:10:25;;;;;;;4.93;1.62;;;9.00;65.20;;;;;;2373811;56;21046;-74
2022/04/08 09:12:53;;;;;;;;;;;9.10;65.00;;;;;;2377411;56;21102;-74
2022/04/08 09:15:20;;;;;;;3.85;1.23;;;9.20;65.70;;;;;;2373255;56;20085;-75
2022/04/08 09:17:48;;;;;;;6.25;1.77;;;9.20;65.70;;;;;;2373530;56;21087;-74
2022/04/08 09:20:15;;;;;;;6.37;1.50;;;9.30;65.60;;;;;;2373730;56;21135;-75
2022/04/08 09:22:52;;;;;;;7.60;1.65;;;9.30;65.80;;;;;;2373695;56;21051;-75
2022/04/08 09:25:19;;;;;;;10.75;1.98;;;9.30;65.50;;;;;;2373084;56;21523;-75
2022/04/08 09:27:47;;;;;;;12.20;1.98;;;9.40;65.60;;;;;;2374038;56;21126;-75
2022/04/08 09:30:20;;;;;;;8.27;1.70;;;9.50;64.60;;;;;;2373650;56;21047;-75
2022/04/08 09:32:47;;;;;;;;;;;9.60;64.10;;;;;;2631376;52;21099;-75
2022/04/08 09:35:19;;;;;;;5.80;2.12;;;9.60;64.50;;;;;;2373603;56;20129;-75
2022/04/08 09:37:58;;;;;;;9.65;1.87;;;9.60;64.30;;;;;;2373111;56;21118;-75
2022/04/08 09:40:25;;;;;;;4.57;1.83;;;9.70;63.80;;;;;;2373243;56;21051;-75
2022/04/08 09:42:54;;;;;;;12.13;1.85;;;9.70;63.60;;;;;;2373691;56;21305;-73
2022/04/08 09:45:29;;;;;;;4.32;1.60;;;9.70;62.70;;;;;;2372749;56;21051;-73
2022/04/08 09:47:56;;;;;;;4.18;1.50;;;9.80;61.70;;;;;;2373640;56;21023;-74
2022/04/08 09:50:24;;;;;;;7.47;2.22;;;9.90;61.40;;;;;;2373873;56;21102;-73
2022/04/08 09:52:52;;;;;;;4.03;1.42;;;9.90;60.90;;;;;;2374001;56;21050;-73
2022/04/08 09:55:21;;;;;;;7.65;1.80;;;10.00;61.20;;;;;;2373369;56;21121;-74
2022/04/08 09:57:50;;;;;;;7.93;1.70;;;10.00;62.40;;;;;;2374120;56;21134;-73
2022/04/08 10:00:18;;;;;;;8.80;1.58;;;10.10;62.60;;;;;;2373689;56;21107;-74
2022/04/08 10:02:48;;;;;;;6.75;1.80;;;10.10;61.60;;;;;;2373802;56;21122;-73
2022/04/08 10:05:15;;;;;;;5.95;1.58;;;10.10;60.80;;;;;;2372056;56;21074;-73
2022/04/08 10:07:46;;;;;;;4.78;1.95;;;10.00;59.80;;;;;;2627213;52;21043;-73
2022/04/08 10:10:21;;;;;;;4.75;1.50;;;10.10;61.00;;;;;;2371717;56;21071;-74
2022/04/08 10:13:14;;;;;;;3.67;1.40;;;10.10;60.20;;;;;;2373228;56;21173;-73
2022/04/08 10:15:44;;;;;;;4.90;1.30;;;10.20;59.90;;;;;;2372429;56;21126;-73
2022/04/08 10:18:11;;;;;;;4.80;1.62;;;10.20;60.80;;;;;;2372404;56;21111;-74
2022/04/08 10:20:40;;;;;;;7.00;1.80;;;10.20;59.30;;;;;;2372724;56;21066;-74
2022/04/08 10:23:09;;;;;;;3.70;1.60;;;10.30;60.30;;;;;;2625893;52;21708;-73
2022/04/08 10:25:38;;;;;;;3.12;1.23;;;10.30;59.30;;;;;;2371509;56;21063;-74
2022/04/08 10:28:07;;;;;;;3.10;1.62;;;10.40;60.60;;;;;;2625847;52;21093;-74
2022/04/08 10:30:36;;;;;;;12.75;2.22;;;10.40;59.10;;;;;;2372832;56;21130;-73
2022/04/08 10:33:06;;;;;;;3.08;1.23;;;10.50;59.10;;;;;;2372727;56;21054;-73
2022/04/08 10:35:34;;;;;;;6.15;1.35;;;10.50;58.00;;;;;;2372273;56;21481;-73
2022/04/08 10:38:03;;;;;;;3.45;1.52;;;10.60;58.30;;;;;;2626151;52;21039;-74
2022/04/08 10:40:33;;;;;;;2.40;1.35;;;10.70;58.30;;;;;;2372159;56;21055;-73
2022/04/08 10:43:02;;;;;;;3.67;1.10;;;10.80;58.20;;;;;;2372223;56;21031;-74
2022/04/08 10:45:29;;;;;;;4.43;1.10;;;10.80;58.10;;;;;;2372302;56;21102;-73
2022/04/08 10:50:39;;;;;;;2.25;1.25;;;10.90;55.60;;;;;;2354379;57;22430;-73
2022/04/08 10:53:09;;;;;;;5.07;1.30;;;10.90;55.00;;;;;;2593095;53;21045;-73
2022/04/08 10:55:47;;;;;;;4.18;0.95;;;11.00;56.20;;;;;;2353624;56;21067;-72
2022/04/08 10:58:15;;;;;;;4.85;1.37;;;11.10;56.90;;;;;;2373450;56;21039;-75
2022/04/08 11:00:43;;;;;;;4.37;1.25;;;11.10;57.90;;;;;;2373273;56;21137;-75
2022/04/08 11:03:11;;;;;;;3.22;1.35;;;11.10;58.20;;;;;;2626889;52;21099;-74
2022/04/08 11:05:39;;;;;;;5.07;1.45;;;11.10;54.50;;;;;;2373025;56;21141;-73
2022/04/08 11:08:07;;;;;;;6.75;1.40;;;11.20;54.70;;;;;;2373167;56;21085;-73
2022/04/08 11:10:35;;;;;;;3.33;1.30;;;11.30;56.90;;;;;;2373386;56;21063;-73
2022/04/08 11:13:02;;;;;;;4.00;1.23;;;11.40;56.50;;;;;;2373509;56;21027;-74
2022/04/08 11:15:31;;;;;;;4.60;1.40;;;11.40;55.90;;;;;;2373230;56;21062;-74
2022/04/08 11:18:00;;;;;;;6.10;1.30;;;11.50;55.10;;;;;;2373292;56;21047;-73
2022/04/08 11:20:28;;;;;;;5.60;1.50;;;11.60;53.00;;;;;;2373174;56;21050;-74
2022/04/08 11:22:55;;;;;;;7.18;1.60;;;11.60;51.70;;;;;;2373378;56;21533;-74
2022/04/08 11:25:24;;;;;;;4.37;1.48;;;11.60;50.90;;;;;;2373379;56;21695;-73
2022/04/08 11:27:59;;;;;;;5.12;1.40;;;11.60;51.20;;;;;;2373968;56;21134;-73
2022/04/08 11:30:27;;;;;;;3.78;1.15;;;11.70;51.60;;;;;;2373755;56;21133;-73
2022/04/08 11:32:54;;;;;;;4.30;1.48;;;11.80;50.10;;;;;;2373473;56;21098;-73
2022/04/08 11:35:22;;;;;;;5.68;1.23;;;11.70;51.00;;;;;;2372858;56;21138;-73
2022/04/08 11:37:49;;;;;;;4.57;1.37;;;11.70;50.80;;;;;;2373876;56;21050;-73
2022/04/08 11:40:18;;;;;;;2.00;0.82;;;11.80;52.10;;;;;;2373421;56;21054;-73
2022/04/08 11:42:46;;;;;;;3.42;1.23;;;11.80;52.10;;;;;;2373912;56;21117;-73
2022/04/08 11:45:15;;;;;;;2.05;0.95;;;11.90;49.30;;;;;;2373553;56;21122;-73
2022/04/08 11:47:47;;;;;;;2.17;1.10;;;11.90;49.10;;;;;;2373358;56;21078;-73
2022/04/08 11:50:22;;;;;;;3.47;1.25;;;12.00;48.40;;;;;;2373584;56;21050;-73
2022/04/08 11:52:53;;;;;;;3.55;1.15;;;12.10;49.60;;;;;;2373364;56;21043;-73
2022/04/08 11:55:24;;;;;;;3.55;1.33;;;12.10;49.80;;;;;;2373735;56;21601;-73
2022/04/08 11:57:52;;;;;;;3.67;1.10;;;12.20;50.90;;;;;;2373013;56;21039;-73
2022/04/08 12:00:25;;;;;;;3.17;1.12;;;12.20;49.30;;;;;;2373558;56;21130;-73
2022/04/08 12:02:52;;;;;;;4.22;1.20;;;12.30;50.30;;;;;;2373115;56;21035;-73
2022/04/08 12:05:24;;;;;;;2.42;1.00;;;12.40;50.20;;;;;;2372431;56;21066;-73
2022/04/08 12:07:53;;;;;;;7.20;1.00;;;12.50;49.80;;;;;;2626193;52;21119;-73
2022/04/08 12:10:23;;;;;;;4.90;1.48;;;12.50;48.20;;;;;;2625675;52;21553;-73
2022/04/08 12:12:50;;;;;;;3.97;0.90;;;12.60;49.30;;;;;;2372192;56;21039;-73
2022/04/08 12:15:22;;;;;;;3.20;1.23;;;12.60;49.90;;;;;;2372454;56;21117;-73
2022/04/08 12:17:50;;;;;;;3.22;0.98;;;12.80;48.90;;;;;;2372653;56;21102;-73
2022/04/08 12:20:19;;;;;;;3.03;1.25;;;12.90;48.70;;;;;;2626078;52;21043;-73
2022/04/08 12:22:48;;;;;;;4.50;1.10;;;13.00;48.30;;;;;;2373182;56;21105;-73
2022/04/08 12:25:18;;;;;;;2.28;0.95;;;13.00;45.30;;;;;;2372502;56;21117;-73
2022/04/08 12:27:53;;;;;;;4.30;1.08;;;13.00;45.70;;;;;;2372916;56;21066;-73
2022/04/08 12:30:27;;;;;;;3.55;1.05;;;12.90;46.00;;;;;;2372539;56;21059;-73
2022/04/08 12:32:54;;;;;;;5.18;1.25;;;12.90;47.60;;;;;;2372753;56;21345;-73
2022/04/08 12:35:22;;;;;;;4.78;1.10;;;13.00;49.90;;;;;;2625987;52;21054;-73
2022/04/08 12:37:49;;;;;;;2.00;1.12;;;13.00;49.90;;;;;;2372918;56;21033;-73
2022/04/08 12:40:16;;;;;;;8.88;1.30;;;13.00;51.60;;;;;;2373260;56;21031;-73
2022/04/08 12:42:43;;;;;;;3.10;1.00;;;13.00;49.70;;;;;;2372824;56;21126;-73
2022/04/08 12:45:12;;;;;;;2.40;0.90;;;12.90;48.40;;;;;;2372112;56;21086;-73
2022/04/08 12:47:39;;;;;;;3.72;1.33;;;12.90;49.90;;;;;;2372255;56;21051;-73
2022/04/08 12:50:10;;;;;;;1.58;1.00;;;12.80;48.80;;;;;;2372099;56;21135;-73
2022/04/08 12:52:38;;;;;;;1.42;0.95;;;12.70;49.70;;;;;;2372375;56;21047;-74
2022/04/08 12:55:08;;;;;;;3.58;1.15;;;12.70;51.20;;;;;;2372176;56;21047;-73
2022/04/08 12:57:35;;;;;;;3.42;1.42;;;12.60;52.30;;;;;;2625278;52;21035;-73
2022/04/08 13:00:11;;;;;;;1.50;1.10;;;12.50;50.70;;;;;;2372299;56;21106;-73
2022/04/08 13:02:39;;;;;;;4.18;1.12;;;12.50;51.80;;;;;;2371440;56;21044;-73
2022/04/08 13:05:07;;;;;;;2.97;0.95;;;12.50;52.50;;;;;;2625264;52;21047;-73